What's new
  • ยินดีต้อนรับทุกท่านเข้าสู่ไทยซีร้อยสามสิบครับ, หากท่านพบปัญหาการใช้งานเว็บไซต์ของเรา
    หรือต้องการเสนอแนะประการใดสามารถโพสแจ้งได้ที่ ฟอรั่ม: Contact us/help info ,ขอบคุณครับ.
    แจ้งข่าวสารการอับเดทฟอรั่ม Thaic-130


    Live support: SKYPIG / Lt.Col.Tirapong Kongsomrit, e-mail: kongsomrit@yahoo.com
    กรุณาปิด โปรแกรมบล๊อกโฆษณา เพราะเราอยู่ได้ด้วยโฆษณาที่ท่านเห็น
    Please close the adblock program. Because we can live with the ads you see

Sep 2013

skypig

Administrator
ประเดิมการบินเดือนนี้ ด้วยเส้นทาง DMK SGN DMK ต่อด้วย
DMK HKT DMK
ตรวจสอบสภาพอากาศ สนามบินต้นทาง ปลายทาง และ สำรอง ก่อนเดินทาง


Aviation Digital Data Service (ADDS)

Output produced by METARs form (0132 UTC 01 September 2013)
found at
Please, Log in or Register to view URLs content!


VTBD 010100Z 00000KT 9999 FEW020 SCT120 BKN300 27/24 Q1010 NOSIG
TAF VTBD 312300Z
Please, Log in or Register to view URLs content!
12005KT 9999 FEW020 SCT035 BKN120
BECMG
Please, Log in or Register to view URLs content!
20008KT FEW020 SCT120 BKN300
TEMPO
Please, Log in or Register to view URLs content!
23010G22KT 5000 TSRA FEW018CB SCT035 BKN120
BECMG
Please, Log in or Register to view URLs content!
10005KT
BECMG
Please, Log in or Register to view URLs content!
20008KT

VVTS 010100Z VRB01KT 9999 FEW017 29/25 Q1010 NOSIG
TAF VVTS 312300Z
Please, Log in or Register to view URLs content!
17010KT 9999 SCT017
TEMPO
Please, Log in or Register to view URLs content!
SCT015 FEW017CB

VTSP 010100Z 00000KT 9999 FEW022 SCT300 27/24 Q1012 A2988
TAF VTSP 312300Z
Please, Log in or Register to view URLs content!
24008KT 9000 FEW020 SCT300
TEMPO
Please, Log in or Register to view URLs content!
24010G20KT 4000 FEW020CB SCT020 BKN100

VDPP 010100Z 17003KT 9999 FEW017 28/24 Q1010
TAF VDPP 312300Z
Please, Log in or Register to view URLs content!
21006KT 9999 SCT017
TEMPO
Please, Log in or Register to view URLs content!
VRB05KT SCT015 FEW017CB
TEMPO
Please, Log in or Register to view URLs content!
RA/SHRA SCT013 FEW017CB SCT040

VTSS 010100Z 19004KT 9999 FEW020 BKN300 26/23 Q1011 A2986 NOSIG
TAF VTSS 312300Z
Please, Log in or Register to view URLs content!
00000KT 8000 FEW020 SCT120 BKN300
BECMG
Please, Log in or Register to view URLs content!
32008KT 9999 SCT020
TEMPO
Please, Log in or Register to view URLs content!
VRB15KT 3000 TSRA FEW016CB BKN020 OVC110
BECMG
Please, Log in or Register to view URLs content!
00000KT 8000 FEW020 BKN120

VTBS 010100Z 05003KT 9999 FEW020 SCT120 BKN300 28/24 Q1010 NOSIG
TAF VTBS 312300Z
Please, Log in or Register to view URLs content!
34005KT 9999 FEW020 SCT120 BKN300
BECMG
Please, Log in or Register to view URLs content!
20008KT
TEMPO
Please, Log in or Register to view URLs content!
21010G22KT 5000 TSRA FEW018CB SCT035 BKN120
BECMG
Please, Log in or Register to view URLs content!
18005KT
BECMG
Please, Log in or Register to view URLs content!
21008KT

กลับถึงบ้านเที่ยงคืน อาจจะพบ Cinderrela ระหว่างทางกลับบ้าน
 

★โต้ ชาวร็อค★

Administrator
Staff member
vtbd-vtbd :
Please, Log in or Register to view URLs content!
(emer)
vtbd-vtbk :
Please, Log in or Register to view URLs content!
(emer อีกแล้ว 2ไฟลท์ติด แสรด..)
vtbk-vtcc :
vtcc-vvts :
Please, Log in or Register to view URLs content!
(กทม หอเยอะหลบมาขึ้นเชียงใหม่ครับ)
vvts-rpll :
Please, Log in or Register to view URLs content!
(แอบเลยไปเที่ยวมะนิลาต่อครับ)
rpll-vmmc :
Please, Log in or Register to view URLs content!
(ไปกันใหญ่ผมไปมาเก๊าต่อ เอิ้กๆ)
vmmc-vtcc :
Please, Log in or Register to view URLs content!

vtcc-vvts :
Please, Log in or Register to view URLs content!
 


Flag Counter

กรุณาปิด โปรแกรมบล๊อกโฆษณา เพราะเราอยู่ได้ด้วยโฆษณาที่ท่านเห็น
Please close the adblock program. Because we can live with the ads you see
Top